Ana Sayfa
METAR-TAF:

METAR-TAF

Havaalanları :

Uşak Havalimanı

Uşak, Türkiye

Enlem: 38-40N, Boylam: 029-25E, yükseklik: 919 m

Güncel hava durumu gözlemi

Rapor saat 08:50 UTC de 29 dakika önce yapıldı.
Rüzgar güney/güneydoğudan 10 kt
Sıcaklık 14°C
Nem 67%
Basınç 1018 hPa
Görüş mesafesi 10 km veya daha fazla
3500 ft yükseklikte parçalı bulutlu
10000 ft yükseklikte parçalı çok bulutlu

METAR: LTBO 190850Z 16010KT 9999 SCT035 BKN100 14/08 Q1018

Saat: 12:19 (09:19 UTC)

Tahmin

Rapor saat 07:40 UTC de 1 saat ve 39 dakika önce yapıldı.
Ayın 19'si saat 09 UTC'den ayın 19'si saat 18 UTC'ye kadar geçerli Tahmin
Rüzgar güneydan 12 kt
Görüş mesafesi 10 km veya daha fazla
3500 ft yükseklikte parçalı bulutlu
10000 ft yükseklikte parçalı çok bulutlu
Dönüşüyor
ayın 19'si saat 15 UTC'den ayın 19'si saat 17 UTC'ye kadar
Rüzgar değişken yönden 2 kt

TAF: LTBO 190740Z 1909/1918 18012KT 9999 SCT035 BKN100 BECMG 1915/1917 VRB02KT

4.000'den fazla havaalanı için hava durumu gözlemleri ve tahminleri (METAR ve TAF raporları).

Kullanılabilir istasyonlar harita üzerinde sarı ve kırmızı noktalarla gösterilir.

İstasyonun adını görmek için fareyi noktanın üzerinde gezdirin.

Sonrasında hava gözlem ve tahminlerini görmek için tıklayın.

Haritayı değiştirmek için: yaklaştırmak için siyah artı işaretli yeşil düğmeye ve uzaklaştırmak için de eksi işaretli düğmeye hızla tıklayın; bitişik haritalar için yeşil okları kullanın.


METAR-TAF: